Time;durP1;ratioP1;P1;durP2;ratioP2;P2;SDS_P1;SDS_P2;PMS_P1;PMS_P2;Temp;Humidity;BMP_temperature;BMP_pressure;BME280_temperature;BME280_humidity;BME280_pressure;Samples;Min_cycle;Max_cycle;Signal;HPM_P1;HPM_P2
2022/03/26 00:00:40;;;;;;;40.37;32.93;;;5.70;98.10;;;6.57;63.80;98940.31;5209692;28;20627;-52
2022/03/26 00:03:13;;;;;;;41.53;32.27;;;5.70;98.00;;;6.54;64.50;98940.91;5207107;28;20300;-53
2022/03/26 00:05:48;;;;;;;37.80;31.33;;;5.70;98.10;;;6.52;63.75;98947.50;5212358;28;20206;-54
2022/03/26 00:08:21;;;;;;;39.57;32.57;;;5.70;97.80;;;6.49;63.85;98945.56;5215698;28;20207;-54
2022/03/26 00:10:54;;;;;;;40.87;33.70;;;5.60;98.40;;;6.45;64.79;98945.19;5217639;28;20233;-54
2022/03/26 00:13:27;;;;;;;40.63;32.60;;;5.60;98.50;;;6.44;65.27;98948.44;5220491;28;20818;-56
2022/03/26 00:16:02;;;;;;;42.30;33.37;;;5.60;98.80;;;6.37;64.56;98941.03;5219708;28;20304;-54
2022/03/26 00:18:35;;;;;;;42.13;33.73;;;5.50;98.30;;;6.32;65.78;98944.06;5221313;28;20196;-54
2022/03/26 00:21:10;;;;;;;47.83;35.77;;;5.40;98.90;;;6.28;65.86;98941.09;5211224;28;20305;-53
2022/03/26 00:23:43;;;;;;;37.67;32.63;;;5.50;98.70;;;6.29;64.67;98938.69;5219205;28;20207;-51
2022/03/26 00:26:16;;;;;;;37.93;30.93;;;5.20;98.60;;;6.08;65.14;98946.91;5220442;28;20194;-53
2022/03/26 00:28:49;;;;;;;44.10;36.23;;;5.10;98.80;;;6.07;65.42;98937.50;5213881;28;20232;-54
2022/03/26 00:31:23;;;;;;;47.70;36.97;;;5.10;99.30;;;5.97;66.45;98937.41;5223875;28;20197;-52
2022/03/26 00:33:56;;;;;;;45.10;35.60;;;5.10;99.90;;;5.93;66.90;98945.47;5211691;28;20649;-51
2022/03/26 00:36:30;;;;;;;43.10;33.13;;;5.10;99.90;;;5.92;66.44;98934.38;5224303;28;20221;-51
2022/03/26 00:39:04;;;;;;;36.90;31.60;;;5.00;99.70;;;5.82;66.26;98942.81;5218377;28;20236;-52
2022/03/26 00:41:37;;;;;;;38.70;30.47;;;4.90;99.90;;;5.74;66.54;98942.84;5211391;28;20643;-51
2022/03/26 00:44:10;;;;;;;41.47;32.83;;;4.90;99.90;;;5.69;65.82;98939.88;5210559;28;20220;-52
2022/03/26 00:46:45;;;;;;;37.63;31.03;;;4.90;99.10;;;5.70;65.88;98940.78;5216647;28;20217;-52
2022/03/26 00:49:19;;;;;;;42.23;35.03;;;4.90;99.30;;;5.75;66.29;98944.63;5222772;28;20561;-51
2022/03/26 00:51:54;;;;;;;39.63;32.20;;;4.90;99.80;;;5.75;66.67;98943.00;5217395;28;20602;-55
2022/03/26 00:54:28;;;;;;;46.13;37.67;;;4.90;99.90;;;5.72;66.49;98942.69;5220910;28;20226;-53
2022/03/26 00:57:01;;;;;;;44.80;34.37;;;4.90;99.90;;;5.58;66.62;98946.50;5217762;28;20699;-51
2022/03/26 00:59:34;;;;;;;43.83;33.40;;;4.80;99.80;;;5.60;66.41;98939.03;5218123;28;20217;-52
2022/03/26 01:02:07;;;;;;;37.93;31.77;;;4.80;99.90;;;5.59;67.79;98942.31;5220148;28;20571;-53
2022/03/26 01:04:44;;;;;;;39.40;32.77;;;4.80;99.90;;;5.59;67.54;98942.31;5221425;28;20286;-53
2022/03/26 01:07:19;;;;;;;41.33;31.57;;;4.70;99.90;;;5.52;66.89;98939.94;5220283;28;20676;-53
2022/03/26 01:09:52;;;;;;;41.50;33.43;;;4.70;99.90;;;5.45;67.07;98933.41;5218883;28;20223;-55
2022/03/26 01:12:26;;;;;;;43.07;33.23;;;4.60;99.90;;;5.49;67.76;98934.59;5219234;28;20210;-52
2022/03/26 01:14:59;;;;;;;39.67;31.40;;;4.60;99.90;;;5.46;68.47;98932.66;5220643;28;20223;-52
2022/03/26 01:17:33;;;;;;;38.33;30.33;;;4.60;99.90;;;5.38;68.55;98937.03;5211808;28;20223;-54
2022/03/26 01:20:08;;;;;;;39.80;31.87;;;4.60;99.90;;;5.38;69.11;98934.50;5214923;28;20227;-56
2022/03/26 01:22:42;;;;;;;38.33;30.80;;;4.50;99.90;;;5.32;68.26;98936.44;5209363;28;20205;-56
2022/03/26 01:25:16;;;;;;;39.00;30.93;;;4.40;99.90;;;5.27;68.26;98936.75;5221577;28;20202;-55
2022/03/26 01:27:49;;;;;;;42.03;33.33;;;4.40;99.90;;;5.20;68.49;98933.63;5210284;28;20205;-54
2022/03/26 01:30:22;;;;;;;39.37;31.27;;;4.30;99.90;;;5.16;68.54;98935.72;5206126;28;20921;-52
2022/03/26 01:32:55;;;;;;;44.00;33.07;;;4.30;99.90;;;5.14;68.25;98937.22;5210577;28;20269;-54
2022/03/26 01:35:28;;;;;;;42.43;32.13;;;4.30;99.90;;;5.13;68.38;98935.44;5213518;28;20214;-53
2022/03/26 01:38:05;;;;;;;43.90;33.07;;;4.40;99.90;;;5.16;68.39;98935.72;5219771;28;20219;-52
2022/03/26 01:40:39;;;;;;;40.03;32.57;;;4.40;99.90;;;5.23;67.98;98930.47;5217518;28;20570;-52
2022/03/26 01:43:12;;;;;;;41.60;31.83;;;4.30;99.90;;;5.22;68.06;98938.84;5208979;28;20207;-52
2022/03/26 01:45:45;;;;;;;41.77;31.97;;;4.30;99.90;;;5.16;68.40;98935.72;5212748;28;20573;-54
2022/03/26 01:48:18;;;;;;;43.23;33.83;;;4.30;99.90;;;5.15;68.75;98942.44;5213247;28;20785;-53
2022/03/26 01:50:51;;;;;;;40.53;30.37;;;4.30;99.90;;;5.17;67.98;98929.91;5213631;28;20222;-51
2022/03/26 01:53:26;;;;;;;43.90;32.27;;;4.40;99.90;;;5.15;68.70;98939.91;5213313;28;20647;-53
2022/03/26 01:55:59;;;;;;;42.80;32.83;;;4.40;99.90;;;5.17;68.61;98934.97;5212116;28;20195;-51
2022/03/26 01:58:32;;;;;;;43.67;33.77;;;4.40;99.90;;;5.17;68.56;98934.97;5212922;28;20222;-51
2022/03/26 02:01:05;;;;;;;40.67;31.83;;;4.40;99.90;;;5.12;68.63;98936.16;5211782;28;20215;-51
2022/03/26 02:03:40;;;;;;;44.77;32.97;;;4.30;99.90;;;5.11;69.00;98934.41;5212804;28;20211;-51
2022/03/26 02:06:13;;;;;;;42.80;32.23;;;4.30;99.90;;;5.12;68.69;98932.03;5215370;28;20580;-51
2022/03/26 02:08:47;;;;;;;45.23;33.47;;;4.40;99.90;;;5.12;68.89;98936.16;5214474;28;20634;-53
2022/03/26 02:11:20;;;;;;;41.13;31.33;;;4.30;99.90;;;5.13;68.52;98940.50;5207914;28;20228;-55
2022/03/26 02:13:57;;;;;;;42.93;32.93;;;4.30;99.90;;;5.10;68.24;98938.56;5209599;28;20214;-52
2022/03/26 02:16:32;;;;;;;43.70;32.70;;;4.30;99.90;;;5.14;68.36;98937.22;5210850;28;20228;-51
2022/03/26 02:19:07;;;;;;;43.43;32.43;;;4.40;99.90;;;5.21;68.57;98926.94;5215429;28;20225;-52
2022/03/26 02:21:41;;;;;;;42.10;32.97;;;4.40;99.90;;;5.19;68.21;98925.88;5208506;28;20241;-51
2022/03/26 02:24:14;;;;;;;42.63;31.90;;;4.40;99.90;;;5.14;68.04;98927.97;5216634;28;20211;-56
2022/03/26 02:26:48;;;;;;;42.20;33.23;;;4.30;99.90;;;5.12;69.19;98920.97;5215023;28;20628;-52
2022/03/26 02:29:21;;;;;;;42.53;32.70;;;4.30;99.90;;;5.02;69.16;98918.31;5207864;28;20223;-56
2022/03/26 02:31:54;;;;;;;42.50;32.33;;;4.20;99.90;;;5.04;68.98;98924.44;5209647;28;20208;-52
2022/03/26 02:34:27;;;;;;;42.23;31.67;;;4.20;99.90;;;5.03;69.08;98920.97;5220786;28;20233;-55
2022/03/26 02:37:22;;;;;;;45.07;34.40;;;4.20;99.90;;;5.03;68.20;98920.09;5213719;28;20256;-56
2022/03/26 02:39:55;;;;;;;45.03;34.17;;;4.20;99.90;;;5.03;68.43;98925.16;5215216;28;20233;-55
2022/03/26 02:42:28;;;;;;;41.23;31.83;;;4.30;99.90;;;5.02;68.08;98928.47;5223482;28;20210;-51
2022/03/26 02:45:02;;;;;;;42.97;31.50;;;4.30;99.90;;;5.03;67.93;98925.16;5215284;28;20205;-52
2022/03/26 02:47:35;;;;;;;42.63;31.73;;;4.30;99.90;;;4.99;68.64;98925.63;5210737;28;20544;-51
2022/03/26 02:50:09;;;;;;;43.87;32.43;;;4.20;99.90;;;4.95;68.72;98932.94;5215567;28;20225;-52
2022/03/26 02:52:48;;;;;;;39.70;30.63;;;4.20;99.90;;;4.97;68.00;98931.41;5215077;28;20203;-56
2022/03/26 02:55:21;;;;;;;41.73;31.73;;;4.20;99.90;;;5.02;67.29;98933.53;5214330;28;20229;-53
2022/03/26 02:57:54;;;;;;;42.73;31.80;;;4.30;99.90;;;5.06;68.67;98930.53;5212642;28;20764;-56
2022/03/26 03:00:27;;;;;;;41.87;32.50;;;4.30;99.90;;;5.04;68.62;98935.47;5207064;28;20601;-54
2022/03/26 03:03:01;;;;;;;38.87;31.23;;;4.30;99.90;;;4.94;69.26;98943.78;5211224;28;20221;-53
2022/03/26 03:05:34;;;;;;;43.23;32.03;;;4.10;99.90;;;4.74;68.74;98941.00;5211911;28;20295;-55
2022/03/26 03:08:09;;;;;;;36.87;30.93;;;3.90;99.90;;;4.72;69.08;98945.00;5216857;28;20614;-52
2022/03/26 03:10:43;;;;;;;39.10;30.73;;;3.80;99.90;;;4.64;69.55;98939.22;5211731;28;20248;-51
2022/03/26 03:13:19;;;;;;;38.70;29.90;;;3.70;99.90;;;4.58;70.34;98937.69;5214347;28;20199;-51
2022/03/26 03:15:53;;;;;;;39.60;30.43;;;3.60;99.90;;;4.49;69.99;98942.75;5209918;28;20205;-53
2022/03/26 03:18:26;;;;;;;43.30;30.83;;;3.60;99.90;;;4.42;71.21;98938.75;5208697;28;20817;-53
2022/03/26 03:21:00;;;;;;;38.33;30.50;;;3.60;99.90;;;4.37;70.99;98937.41;5212134;28;20202;-52
2022/03/26 03:23:34;;;;;;;37.53;29.30;;;3.50;99.90;;;4.39;70.63;98932.50;5214264;28;20208;-52
2022/03/26 03:26:07;;;;;;;41.27;30.30;;;3.40;99.90;;;4.33;71.57;98937.84;5215889;28;20200;-52
2022/03/26 03:28:40;;;;;;;40.00;30.03;;;3.50;99.90;;;4.31;71.53;98934.25;5209972;28;20190;-53
2022/03/26 03:31:13;;;;;;;41.73;30.67;;;3.40;99.90;;;4.27;71.03;98928.00;5213709;28;20205;-57
2022/03/26 03:33:47;;;;;;;42.50;30.90;;;3.50;99.90;;;4.30;71.35;98929.97;5204747;28;20202;-56
2022/03/26 03:36:20;;;;;;;39.03;29.57;;;3.50;99.90;;;4.33;70.10;98932.78;5209609;28;20194;-56
2022/03/26 03:38:55;;;;;;;38.37;30.67;;;3.50;99.90;;;4.34;69.53;98932.03;5209562;28;20229;-53
2022/03/26 03:41:28;;;;;;;38.83;29.13;;;3.50;99.90;;;4.28;70.73;98927.25;5214660;28;20199;-56
2022/03/26 03:44:02;;;;;;;42.47;31.13;;;3.60;99.90;;;4.22;71.24;98933.38;5208222;28;20631;-53
2022/03/26 03:46:35;;;;;;;36.47;29.47;;;3.40;99.90;;;4.20;71.00;98932.31;5217522;28;20217;-54
2022/03/26 03:49:08;;;;;;;37.57;28.93;;;3.30;99.90;;;4.19;70.96;98933.06;5218702;28;20747;-51
2022/03/26 03:51:41;;;;;;;39.93;29.87;;;3.30;99.90;;;4.15;71.94;98936.00;5215186;28;20196;-52
2022/03/26 03:54:16;;;;;;;40.30;30.53;;;3.40;99.90;;;4.11;71.70;98923.81;5215534;28;20216;-52
2022/03/26 03:56:49;;;;;;;39.33;29.77;;;3.30;99.90;;;4.13;71.79;98935.00;5221661;28;20703;-56
2022/03/26 03:59:22;;;;;;;37.40;29.27;;;3.30;99.90;;;4.07;72.13;98931.09;5217497;28;20250;-54
2022/03/26 04:01:55;;;;;;;38.37;28.50;;;3.20;99.90;;;4.02;72.23;98922.16;5216687;28;20213;-53
2022/03/26 04:04:28;;;;;;;41.97;31.07;;;3.20;99.90;;;4.10;71.44;98930.53;5215331;28;20221;-54
2022/03/26 04:07:02;;;;;;;40.03;29.97;;;3.10;99.90;;;4.04;72.75;98932.44;5218701;28;20213;-55
2022/03/26 04:09:36;;;;;;;38.93;29.63;;;3.10;99.90;;;3.93;73.52;98923.78;5220186;28;20698;-53
2022/03/26 04:12:11;;;;;;;37.13;29.07;;;3.10;99.90;;;3.94;72.28;98927.19;5219788;28;20573;-52
2022/03/26 04:14:44;;;;;;;36.77;28.60;;;3.00;99.90;;;3.82;72.89;98924.34;5215694;28;20197;-52
2022/03/26 04:17:17;;;;;;;38.97;29.10;;;2.90;99.90;;;3.74;72.89;98922.69;5220912;28;20212;-56
2022/03/26 04:19:50;;;;;;;37.27;30.17;;;2.90;99.90;;;3.68;72.43;98929.66;5221345;28;20576;-54
2022/03/26 04:22:23;;;;;;;39.83;29.43;;;2.80;99.90;;;3.69;72.76;98924.75;5221924;28;20679;-54
2022/03/26 04:24:58;;;;;;;36.07;28.97;;;2.80;99.90;;;3.70;73.43;98921.47;5218473;28;20241;-53
2022/03/26 04:27:31;;;;;;;39.47;29.77;;;2.90;99.90;;;3.72;72.92;98925.06;5219166;28;20207;-54
2022/03/26 04:30:06;;;;;;;41.87;29.77;;;2.90;99.90;;;3.68;74.03;98924.59;5222003;28;20228;-53
2022/03/26 04:32:39;;;;;;;39.47;28.53;;;2.90;99.90;;;3.71;73.38;98927.44;5221156;28;20200;-56
2022/03/26 04:35:12;;;;;;;39.60;29.33;;;2.90;99.90;;;3.78;73.60;98927.31;5217631;28;20198;-52
2022/03/26 04:37:45;;;;;;;35.87;27.30;;;2.90;99.90;;;3.85;73.48;98932.22;5223195;28;20230;-54
2022/03/26 04:40:20;;;;;;;40.37;29.50;;;2.90;99.90;;;3.91;72.13;98932.84;5221321;28;20225;-55
2022/03/26 04:42:53;;;;;;;36.13;27.70;;;2.80;99.90;;;3.85;71.83;98932.22;5217143;28;20197;-56
2022/03/26 04:45:26;;;;;;;36.23;28.20;;;2.60;99.90;;;3.67;73.14;98932.94;5215411;28;20212;-55
2022/03/26 04:47:59;;;;;;;37.37;28.33;;;2.60;99.90;;;3.60;73.25;98928.88;5222493;28;20197;-55
2022/03/26 04:50:33;;;;;;;37.97;29.50;;;2.60;99.90;;;3.55;73.36;98930.94;5218428;28;20228;-56
2022/03/26 04:53:06;;;;;;;39.80;28.43;;;2.60;99.90;;;3.53;73.99;98932.41;5222463;28;20194;-53
2022/03/26 04:55:40;;;;;;;40.80;29.67;;;2.60;99.90;;;3.42;75.08;98937.13;5214781;28;20240;-54
2022/03/26 04:58:13;;;;;;;39.07;28.97;;;2.50;99.90;;;3.42;72.94;98945.59;5222333;28;20684;-54
2022/03/26 05:00:47;;;;;;;37.47;28.20;;;2.40;99.90;;;3.26;74.12;98939.69;5218096;28;20221;-56
2022/03/26 05:03:20;;;;;;;38.07;28.50;;;2.30;99.90;;;3.19;75.89;98944.88;5214980;28;20219;-55
2022/03/26 05:05:53;;;;;;;39.87;29.70;;;2.30;99.90;;;3.19;75.21;98947.41;5216327;28;20205;-53
2022/03/26 05:08:26;;;;;;;39.03;28.67;;;2.30;99.90;;;3.25;75.18;98953.09;5216431;28;20201;-52
2022/03/26 05:11:00;;;;;;;37.77;28.20;;;2.30;99.90;;;3.16;75.54;98953.91;5217291;28;20208;-52
2022/03/26 05:13:34;;;;;;;39.27;28.40;;;2.20;99.90;;;3.05;74.86;98956.06;5210484;28;20204;-52
2022/03/26 05:16:07;;;;;;;37.07;27.70;;;2.10;99.90;;;2.98;74.77;98962.13;5214860;28;20453;-55
2022/03/26 05:18:41;;;;;;;39.67;28.13;;;2.10;99.90;;;3.01;75.44;98962.44;5210249;28;20225;-52
2022/03/26 05:21:14;;;;;;;39.90;28.33;;;2.10;99.90;;;2.95;76.12;98961.81;5210524;28;20193;-54
2022/03/26 05:23:47;;;;;;;37.80;28.83;;;2.10;99.90;;;2.97;75.44;98964.47;5218045;28;20644;-53
2022/03/26 05:26:22;;;;;;;38.40;28.60;;;2.10;99.90;;;3.08;75.14;98958.91;5215043;28;20204;-52
2022/03/26 05:28:56;;;;;;;36.37;26.73;;;2.20;99.90;;;3.07;75.33;98962.19;5217744;28;20224;-52
2022/03/26 05:31:30;;;;;;;35.90;27.10;;;2.10;99.90;;;3.01;75.25;98954.88;5215054;28;20638;-52
2022/03/26 05:34:03;;;;;;;36.33;27.60;;;2.10;99.90;;;2.97;75.40;98960.31;5214693;28;20209;-52
2022/03/26 05:36:36;;;;;;;37.30;28.37;;;2.00;99.90;;;2.97;75.80;98962.84;5219143;28;20741;-52
2022/03/26 05:39:09;;;;;;;36.60;26.87;;;2.10;99.90;;;3.00;76.41;98965.69;5214736;28;20232;-53
2022/03/26 05:41:49;;;;;;;35.43;26.27;;;2.10;99.90;;;3.07;75.85;98967.25;5217383;28;20619;-52
2022/03/26 05:44:22;;;;;;;36.17;27.07;;;2.10;99.90;;;3.09;75.95;98970.78;5217885;28;20219;-52
2022/03/26 05:46:55;;;;;;;36.23;26.23;;;2.20;99.90;;;3.03;76.51;98971.06;5213851;28;20685;-53
2022/03/26 05:49:29;;;;;;;35.60;26.37;;;2.20;99.90;;;3.08;76.46;98974.06;5216932;28;20216;-53
2022/03/26 05:52:02;;;;;;;37.90;25.70;;;2.30;99.90;;;3.21;76.45;98982.19;5219682;28;20209;-52
2022/03/26 05:54:35;;;;;;;36.53;28.37;;;2.40;99.90;;;3.21;75.87;98977.13;5216176;28;20220;-54
2022/03/26 05:57:09;;;;;;;37.30;27.60;;;2.40;99.90;;;3.32;76.13;98973.16;5214354;28;20303;-52
2022/03/26 05:59:42;;;;;;;39.33;27.57;;;2.60;99.90;;;3.52;75.63;98971.06;5212292;28;20230;-53
2022/03/26 06:02:15;;;;;;;38.97;27.47;;;2.80;99.90;;;3.74;75.46;98978.31;5210864;28;20231;-53
2022/03/26 06:04:49;;;;;;;34.20;25.60;;;2.90;99.90;;;3.92;73.44;98979.25;5212958;28;20212;-52
2022/03/26 06:07:22;;;;;;;34.37;25.83;;;2.90;99.90;;;4.17;72.62;98988.56;5212262;28;20216;-52
2022/03/26 06:09:55;;;;;;;37.70;27.50;;;3.10;99.90;;;4.31;71.66;98987.41;5213785;28;20217;-53
2022/03/26 06:12:30;;;;;;;33.43;25.20;;;3.20;99.90;;;4.31;72.50;98991.56;5214330;28;20201;-54
2022/03/26 06:15:04;;;;;;;35.30;26.33;;;3.40;99.90;;;4.38;71.94;98999.03;5217979;28;20201;-56
2022/03/26 06:17:37;;;;;;;35.33;25.97;;;3.40;99.90;;;4.42;71.60;99003.66;5212221;28;20746;-57
2022/03/26 06:20:11;;;;;;;37.43;27.53;;;3.40;99.90;;;4.44;71.21;99000.53;5213438;28;20226;-53
2022/03/26 06:22:44;;;;;;;35.33;27.17;;;3.40;99.90;;;4.53;71.42;99015.75;5216832;28;20300;-56
2022/03/26 06:25:17;;;;;;;33.93;26.03;;;3.50;99.90;;;4.83;70.64;99012.78;5213403;28;20249;-54
2022/03/26 06:27:52;;;;;;;32.23;26.50;;;3.70;99.90;;;5.21;69.94;99013.09;5212273;28;20596;-55
2022/03/26 06:30:25;;;;;;;36.93;26.20;;;4.00;99.90;;;5.58;68.22;99006.44;5212770;28;20224;-52
2022/03/26 06:32:58;;;;;;;34.43;26.13;;;4.30;99.90;;;6.01;66.97;99005.44;5215679;28;20208;-57
2022/03/26 06:35:31;;;;;;;37.00;26.77;;;4.70;99.90;;;6.48;65.82;99002.22;5213077;28;20241;-57
2022/03/26 06:38:04;;;;;;;35.00;27.13;;;5.10;99.90;;;6.91;62.91;99011.16;5218049;28;20260;-56
2022/03/26 06:40:38;;;;;;;33.93;25.90;;;5.50;99.90;;;7.16;62.90;99008.28;5204564;28;20222;-54
2022/03/26 06:43:12;;;;;;;35.37;26.77;;;5.80;99.90;;;7.57;61.50;99003.38;5208912;28;20206;-54
2022/03/26 06:45:45;;;;;;;31.83;26.33;;;6.10;99.40;;;7.99;60.04;99006.19;5209742;28;20279;-52
2022/03/26 06:48:19;;;;;;;34.30;27.73;;;6.40;99.00;;;8.37;59.11;99006.00;5206226;28;20212;-53
2022/03/26 06:50:52;;;;;;;36.90;27.57;;;6.80;98.30;;;8.73;57.04;99012.44;5218041;28;20222;-56
2022/03/26 06:53:25;;;;;;;33.87;27.83;;;7.10;97.10;;;8.94;56.86;99014.19;5214505;28;20210;-52
2022/03/26 06:55:58;;;;;;;35.70;26.93;;;7.20;96.90;;;9.39;56.09;99015.25;5215077;28;20204;-52
2022/03/26 06:58:33;;;;;;;34.63;29.00;;;7.50;96.70;;;9.78;54.33;99014.94;5212266;28;20208;-56
2022/03/26 07:01:06;;;;;;;34.67;27.37;;;7.80;96.30;;;10.22;52.05;99014.97;5208147;28;20217;-56
2022/03/26 07:03:39;;;;;;;35.03;28.57;;;8.30;94.80;;;10.44;50.97;99014.06;5206639;28;20209;-57
2022/03/26 07:06:15;;;;;;;34.17;29.40;;;8.40;94.20;;;10.58;51.19;99011.78;5206880;28;20206;-56
2022/03/26 07:08:48;;;;;;;36.00;28.73;;;8.50;94.10;;;11.05;49.55;99011.91;5214886;28;20223;-57
2022/03/26 07:11:21;;;;;;;36.20;29.23;;;8.60;94.00;;;11.41;49.24;99019.59;5221017;28;20494;-56
2022/03/26 07:13:56;;;;;;;34.13;29.00;;;8.80;93.70;;;11.75;48.30;99017.78;5213784;28;20197;-55
2022/03/26 07:16:29;;;;;;;33.73;29.23;;;9.20;93.00;;;11.72;47.77;99008.19;5212273;28;20585;-56
2022/03/26 07:19:02;;;;;;;36.63;29.03;;;9.30;92.20;;;11.44;49.32;99017.25;5213185;28;20575;-54
2022/03/26 07:21:36;;;;;;;34.97;28.80;;;9.50;92.70;;;11.41;49.39;99017.03;5213261;28;20211;-57
2022/03/26 07:24:09;;;;;;;34.87;28.60;;;9.80;92.00;;;11.48;49.16;99009.03;5215417;28;20209;-55
2022/03/26 07:26:42;;;;;;;34.57;27.87;;;9.90;91.90;;;11.47;49.33;99017.47;5205789;28;20193;-54
2022/03/26 07:29:17;;;;;;;33.33;28.10;;;10.00;91.70;;;11.55;48.32;99018.91;5218750;28;20233;-57
2022/03/26 07:31:52;;;;;;;32.30;27.33;;;10.00;90.90;;;11.66;48.45;99022.25;5212011;28;20201;-52
2022/03/26 07:34:26;;;;;;;34.20;27.70;;;10.20;91.00;;;11.83;48.18;99021.78;5215007;28;20284;-55
2022/03/26 07:37:00;;;;;;;35.58;28.20;;;10.50;90.50;;;11.86;47.22;99016.91;5216822;28;20205;-52
2022/03/26 07:39:33;;;;;;;37.03;28.10;;;10.50;90.00;;;12.01;47.25;99026.44;5209262;28;20634;-56
2022/03/26 07:42:07;;;;;;;34.63;26.90;;;10.90;88.80;;;12.31;47.32;99025.13;5214073;28;20193;-56
2022/03/26 07:44:42;;;;;;;33.92;28.05;;;11.10;89.20;;;12.43;46.06;99018.28;5211922;28;20566;-57
2022/03/26 07:47:15;;;;;;;32.72;27.55;;;11.20;87.30;;;12.49;46.21;99018.69;5210832;28;20203;-56
2022/03/26 07:49:48;;;;;;;33.10;26.85;;;11.40;87.10;;;12.77;45.80;99021.47;5212080;28;20213;-54
2022/03/26 07:52:21;;;;;;;31.38;27.02;;;11.70;86.20;;;12.95;44.59;99020.91;5207650;28;20205;-55
2022/03/26 07:54:54;;;;;;;35.83;27.95;;;11.90;84.60;;;13.02;43.84;99026.56;5217502;28;20198;-57
2022/03/26 07:57:28;;;;;;;34.53;26.48;;;11.90;83.80;;;13.16;44.20;99011.16;5209762;28;20209;-57
2022/03/26 08:00:02;;;;;;;37.42;27.77;;;11.90;83.40;;;13.12;42.96;99016.88;5214410;28;20232;-56
2022/03/26 08:02:35;;;;;;;31.20;26.50;;;11.90;82.30;;;13.16;42.91;99016.28;5211706;28;20873;-57
2022/03/26 08:05:09;;;;;;;31.70;25.40;;;12.10;82.40;;;13.30;42.68;99020.69;5220717;28;20202;-57
2022/03/26 08:07:42;;;;;;;33.42;26.52;;;12.20;81.80;;;13.69;41.92;99018.91;5210199;28;20202;-57
2022/03/26 08:10:15;;;;;;;34.30;27.23;;;12.70;80.40;;;13.85;41.62;99021.66;5213905;28;20301;-53
2022/03/26 08:12:48;;;;;;;30.17;25.15;;;13.00;79.60;;;13.90;41.16;99020.25;5211870;28;20211;-55
2022/03/26 08:15:23;;;;;;;33.78;26.88;;;13.10;79.00;;;13.92;40.03;99020.34;5220113;28;20649;-55
2022/03/26 08:17:58;;;;;;;29.90;26.10;;;13.30;77.80;;;14.09;41.47;99022.28;5216318;28;20217;-54
2022/03/26 08:20:32;;;;;;;31.90;25.98;;;13.10;78.40;;;14.08;40.05;99020.53;5212012;28;20224;-54
2022/03/26 08:23:05;;;;;;;31.48;26.92;;;13.40;76.60;;;14.31;40.07;99021.94;5215848;28;20199;-54
2022/03/26 08:28:29;;;;;;;32.80;26.35;;;13.60;76.90;;;14.64;39.80;99022.22;5212170;28;20190;-50
2022/03/26 08:31:04;;;;;;;34.33;26.10;;;13.90;75.80;;;14.94;40.05;99022.28;5218355;28;20204;-53
2022/03/26 08:33:37;;;;;;;33.15;26.88;;;14.20;75.50;;;15.05;38.76;99016.03;5222906;28;20197;-51
2022/03/26 08:36:11;;;;;;;31.15;26.10;;;14.30;74.50;;;15.16;39.37;99024.38;5210502;28;20208;-51
2022/03/26 08:38:46;;;;;;;32.60;26.42;;;14.50;74.80;;;15.31;39.18;99026.16;5218158;28;20215;-50
2022/03/26 08:41:22;;;;;;;33.80;26.13;;;14.60;74.70;;;15.47;38.57;99027.03;5215473;28;20225;-50
2022/03/26 08:43:55;;;;;;;33.08;26.92;;;14.70;74.00;;;15.80;37.48;99022.03;5217326;28;21780;-55
2022/03/26 08:46:30;;;;;;;35.63;26.80;;;15.20;71.90;;;15.93;37.76;99032.19;5213978;28;20201;-53
2022/03/26 08:49:03;;;;;;;32.55;27.50;;;15.30;72.50;;;16.26;36.86;99024.53;5222316;28;20267;-51
2022/03/26 08:51:36;;;;;;;35.35;27.15;;;15.60;71.40;;;16.39;37.46;99026.94;5221165;28;20194;-51
2022/03/26 08:54:09;;;;;;;32.97;26.95;;;15.70;71.70;;;16.54;36.90;99032.00;5214070;28;20210;-53
2022/03/26 08:56:42;;;;;;;33.42;26.73;;;15.90;71.00;;;16.73;36.13;99032.16;5213493;28;20208;-52
2022/03/26 08:59:15;;;;;;;33.58;27.45;;;16.10;69.90;;;16.90;35.56;99025.31;5216364;28;20218;-53
2022/03/26 09:01:50;;;;;;;35.35;26.52;;;16.40;68.80;;;16.92;36.05;99023.72;5218296;28;20228;-52
2022/03/26 09:04:23;;;;;;;30.63;25.88;;;16.40;69.70;;;17.01;35.53;99021.59;5212282;28;20259;-52
2022/03/26 09:06:56;;;;;;;34.65;26.67;;;16.50;68.70;;;17.20;35.03;99025.13;5214975;28;20212;-51
2022/03/26 09:09:29;;;;;;;35.58;26.85;;;16.60;68.10;;;17.48;34.60;99019.56;5215161;28;20221;-53
2022/03/26 09:12:03;;;;;;;37.28;27.73;;;16.90;66.70;;;17.52;34.08;99026.69;5215811;28;20208;-50
2022/03/26 09:14:36;;;;;;;35.60;27.90;;;17.00;65.70;;;17.56;34.54;99018.25;5214515;28;20613;-53
2022/03/26 09:17:10;;;;;;;35.50;27.83;;;16.90;66.00;;;17.69;33.08;99024.91;5216966;28;20202;-51
2022/03/26 09:19:44;;;;;;;34.95;27.50;;;17.10;65.20;;;17.84;33.45;99020.47;5215231;28;20726;-53
2022/03/26 09:22:17;;;;;;;34.20;26.70;;;17.30;65.40;;;17.92;33.26;99019.16;5216312;28;20236;-53
2022/03/26 09:24:50;;;;;;;33.97;28.55;;;17.30;64.90;;;18.01;32.63;99014.41;5218092;28;20215;-50
2022/03/26 09:27:23;;;;;;;32.08;27.23;;;17.50;63.50;;;17.99;32.18;99007.38;5213421;28;20213;-54
2022/03/26 09:29:56;;;;;;;35.08;27.83;;;17.50;63.30;;;17.85;33.60;99008.44;5214451;28;20217;-50
2022/03/26 09:32:31;;;;;;;37.92;28.20;;;17.20;64.90;;;17.95;33.35;99006.34;5214057;28;20202;-54
2022/03/26 09:35:05;;;;;;;36.35;28.42;;;17.30;64.60;;;18.29;31.93;99002.72;5215767;28;20271;-50
2022/03/26 09:37:39;;;;;;;39.63;29.73;;;17.70;63.50;;;18.11;31.93;99004.47;5220694;28;20197;-50
2022/03/26 09:40:12;;;;;;;35.67;28.15;;;17.80;61.40;;;18.34;31.33;98998.66;5218543;28;20225;-53
2022/03/26 09:42:46;;;;;;;38.55;29.42;;;18.00;61.20;;;18.35;31.17;98995.22;5224345;28;20665;-52
2022/03/26 09:45:19;;;;;;;35.35;28.77;;;17.90;60.50;;;18.50;30.93;98996.72;5224362;28;20201;-50
2022/03/26 09:47:54;;;;;;;36.85;28.80;;;17.90;60.90;;;18.67;30.15;98993.16;5221553;28;20194;-54
2022/03/26 09:50:27;;;;;;;37.13;29.25;;;18.20;59.30;;;18.58;30.43;98992.78;5221883;28;20225;-52
2022/03/26 09:53:01;;;;;;;40.15;31.45;;;18.20;59.50;;;18.30;29.38;98986.38;5222641;28;20221;-54
2022/03/26 09:55:34;;;;;;;33.30;28.52;;;18.00;57.40;;;18.28;29.62;98993.16;5219975;28;20202;-50
2022/03/26 09:58:07;;;;;;;35.65;29.75;;;17.80;58.50;;;18.16;29.55;98983.16;5221787;28;20204;-53
2022/03/26 10:00:40;;;;;;;35.67;28.88;;;17.80;58.30;;;18.41;29.50;98979.97;5223600;28;20221;-50
2022/03/26 10:03:15;;;;;;;35.38;29.20;;;18.00;58.70;;;18.44;29.59;98979.22;5222031;28;20568;-55
2022/03/26 10:05:49;;;;;;;35.72;29.40;;;17.90;58.80;;;18.40;30.07;98973.03;5221810;28;20242;-52
2022/03/26 10:08:24;;;;;;;34.28;28.55;;;18.00;58.80;;;18.53;30.36;98983.91;5217229;28;20223;-54
2022/03/26 10:10:57;;;;;;;33.83;28.65;;;18.10;58.90;;;18.58;29.27;98985.88;5222467;28;20706;-54
2022/03/26 10:13:36;;;;;;;38.28;31.60;;;18.10;58.20;;;18.50;29.71;98978.59;5221664;28;20205;-51
2022/03/26 10:16:12;;;;;;;37.92;29.20;;;18.00;58.30;;;18.55;28.88;98977.09;5222326;28;20745;-53
2022/03/26 10:18:50;;;;;;;38.35;30.67;;;18.00;57.50;;;18.40;29.45;98977.31;5219246;28;20276;-52
2022/03/26 10:21:23;;;;;;;36.72;30.30;;;18.00;57.80;;;18.20;29.29;98966.09;5217459;28;20593;-53
2022/03/26 10:23:58;;;;;;;38.60;29.70;;;17.80;57.30;;;18.07;28.62;98971.50;5223170;28;20212;-55
2022/03/26 10:26:31;;;;;;;35.65;29.15;;;17.60;57.00;;;18.30;29.50;98962.19;5223026;28;20197;-52
2022/03/26 10:29:05;;;;;;;37.45;30.35;;;17.80;57.60;;;18.33;29.11;98970.97;5224616;28;20225;-50
2022/03/26 10:34:31;;;;;;;34.80;28.77;;;17.90;57.20;;;18.44;28.86;98961.97;5220833;28;20670;-51
2022/03/26 10:37:05;;;;;;;31.10;26.38;;;17.90;57.40;;;18.80;29.26;98969.59;5216043;28;20239;-52
2022/03/26 10:39:37;;;;;;;37.03;29.13;;;18.30;57.50;;;18.75;28.81;98965.94;5223328;28;20505;-51
2022/03/26 10:42:14;;;;;;;39.92;30.42;;;18.30;57.10;;;18.53;28.31;98973.56;5221856;28;20221;-51
2022/03/26 10:44:49;;;;;;;36.78;30.00;;;18.00;56.40;;;18.61;28.32;98973.06;5219514;28;20220;-52
2022/03/26 10:47:22;;;;;;;35.30;28.73;;;18.10;56.60;;;18.59;28.07;98969.53;5217527;28;20197;-51